Aérodrome :
LOGIN :

S'inscrire | Disclaimer

   EN    FR    IT 

 










Légende :    VFR   VFR Marginal   IFR   IFR Intensif   IFR Très Intensif
Visi : 
Plafond : 
>= 8 km
>= 3000ft
5 à 8 km
1000 à 3000 ft
1500m à 5 km
500 à 1000 ft
800 à 1500m
200 à 500 ft
< 800m
< 200 ft
Symboles :   Orages  Brouillard  Fortes neiges  Fortes précipitations  Vent > 20 kt
SIGMETs :   Divers  Orages  Givrage  Turbulence  Onde Orograph.  Cendres Volcan.







- Altitude de l'aérodrome : 277 ft
- Code IATA : JER
- Voir les cartes d'approche


EGJJ - Jersey

DERNIER METAR :
  • 210050Z AUTO 10011KT 7000 HZ NCD 12/10 Q1016

METARs EXPIRÉS :
  • 210020Z AUTO 11011KT 7000 HZ NCD 12/10 Q1016
  • 202350Z AUTO 08012KT 8000 HZ NCD 13/10 Q1016
  • 202320Z AUTO 07013KT 8000 HZ NCD 13/10 Q1017
  • 202250Z AUTO 07014KT 7000 HZ NCD 12/10 Q1017
  • 202220Z AUTO 07014KT 6000 HZ NCD 12/09 Q1017

TAF TAF EGJJ
Valide du 21 à 00h jusqu'au 21 à 09h UTC


202253Z 2100/2109 06010KT 6000 NSC
TEMPO 2100/2109 4000 BR
PROB30
TEMPO 2103/2107 0500 FG BKN000
ATIS : +44 1534 498 073
Pas de NOTAMs connus pour ce terrain.



MET'MAP, la Météo Aéronautique d'un coup d'oeil ! - Copyright ORBIFLY Décembre 2007 - Disclaimer

ORBIFLY MET'MAP TEAM :

Programmation & Développement : Alexandra Zaïnal
Conception & Développement : Baudouin d'Aumeries
Co-Programmation & Développement : Marc-Olivier Méhu
Soutien technique & logistique : Manuel Goepfert

Contact : metmap@orbifly.com




SOURCES & CREDITS :

   NOAA